sensor_id;sensor_type;location;lat;lon;timestamp;pressure;altitude;pressure_sealevel;temperature;humidity
6506;BME280;3286;49.858;8.768;2022-12-07T00:00:53;99318.78;;;5.99;57.95
6506;BME280;3286;49.858;8.768;2022-12-07T00:03:19;99314.19;;;6.02;57.89
6506;BME280;3286;49.858;8.768;2022-12-07T00:05:47;99310.00;;;6.11;58.06
6506;BME280;3286;49.858;8.768;2022-12-07T00:08:14;99310.84;;;6.12;57.90
6506;BME280;3286;49.858;8.768;2022-12-07T00:10:42;99319.41;;;6.14;57.56
6506;BME280;3286;49.858;8.768;2022-12-07T00:13:09;99313.81;;;6.30;57.53
6506;BME280;3286;49.858;8.768;2022-12-07T00:15:35;99312.84;;;6.54;56.71
6506;BME280;3286;49.858;8.768;2022-12-07T00:18:02;99310.38;;;6.06;57.59
6506;BME280;3286;49.858;8.768;2022-12-07T00:20:30;99299.63;;;6.32;57.35
6506;BME280;3286;49.858;8.768;2022-12-07T00:23:01;99298.72;;;5.63;59.09
6506;BME280;3286;49.858;8.768;2022-12-07T00:25:32;99295.94;;;6.12;58.43
6506;BME280;3286;49.858;8.768;2022-12-07T00:27:58;99298.81;;;6.20;57.53
6506;BME280;3286;49.858;8.768;2022-12-07T00:30:25;99293.41;;;6.22;57.71
6506;BME280;3286;49.858;8.768;2022-12-07T00:32:53;99291.66;;;6.22;57.17
6506;BME280;3286;49.858;8.768;2022-12-07T00:35:23;99290.66;;;6.46;56.80
6506;BME280;3286;49.858;8.768;2022-12-07T00:37:49;99296.00;;;5.76;58.73
6506;BME280;3286;49.858;8.768;2022-12-07T00:40:17;99282.34;;;5.37;59.57
6506;BME280;3286;49.858;8.768;2022-12-07T00:42:44;99284.25;;;6.05;58.54
6506;BME280;3286;49.858;8.768;2022-12-07T00:45:12;99282.06;;;5.87;58.55
6506;BME280;3286;49.858;8.768;2022-12-07T00:47:42;99276.28;;;5.36;59.65
6506;BME280;3286;49.858;8.768;2022-12-07T00:50:14;99276.81;;;5.87;57.83
6506;BME280;3286;49.858;8.768;2022-12-07T00:52:42;99269.31;;;5.71;58.78
6506;BME280;3286;49.858;8.768;2022-12-07T00:55:09;99270.16;;;5.25;59.90
6506;BME280;3286;49.858;8.768;2022-12-07T00:57:37;99280.44;;;6.20;57.54
6506;BME280;3286;49.858;8.768;2022-12-07T01:00:05;99263.97;;;5.84;57.77
6506;BME280;3286;49.858;8.768;2022-12-07T01:02:32;99276.31;;;5.59;59.47
6506;BME280;3286;49.858;8.768;2022-12-07T01:04:58;99269.88;;;5.52;59.71
6506;BME280;3286;49.858;8.768;2022-12-07T01:07:26;99258.13;;;6.26;57.06
6506;BME280;3286;49.858;8.768;2022-12-07T01:09:53;99267.44;;;5.96;57.69
6506;BME280;3286;49.858;8.768;2022-12-07T01:12:22;99261.56;;;5.92;57.36
6506;BME280;3286;49.858;8.768;2022-12-07T01:14:50;99250.09;;;5.71;58.42
6506;BME280;3286;49.858;8.768;2022-12-07T01:17:17;99255.75;;;6.00;57.18
6506;BME280;3286;49.858;8.768;2022-12-07T01:19:45;99250.13;;;5.82;58.02
6506;BME280;3286;49.858;8.768;2022-12-07T01:22:12;99265.78;;;6.06;56.98
6506;BME280;3286;49.858;8.768;2022-12-07T01:24:38;99276.63;;;6.13;57.01
6506;BME280;3286;49.858;8.768;2022-12-07T01:27:06;99264.19;;;5.81;58.23
6506;BME280;3286;49.858;8.768;2022-12-07T01:29:33;99268.88;;;6.12;56.94
6506;BME280;3286;49.858;8.768;2022-12-07T01:32:02;99263.50;;;6.25;56.55
6506;BME280;3286;49.858;8.768;2022-12-07T01:34:29;99256.31;;;6.38;56.75
6506;BME280;3286;49.858;8.768;2022-12-07T01:36:56;99270.31;;;6.04;57.18
6506;BME280;3286;49.858;8.768;2022-12-07T01:39:23;99257.75;;;5.85;57.79
6506;BME280;3286;49.858;8.768;2022-12-07T01:41:50;99276.22;;;5.84;58.04
6506;BME280;3286;49.858;8.768;2022-12-07T01:44:19;99274.00;;;6.13;56.91
6506;BME280;3286;49.858;8.768;2022-12-07T01:46:47;99270.13;;;6.51;55.86
6506;BME280;3286;49.858;8.768;2022-12-07T01:49:20;99273.84;;;6.49;56.09
6506;BME280;3286;49.858;8.768;2022-12-07T01:51:49;99266.72;;;6.05;56.72
6506;BME280;3286;49.858;8.768;2022-12-07T01:54:19;99272.19;;;6.25;56.50
6506;BME280;3286;49.858;8.768;2022-12-07T01:56:50;99268.47;;;5.93;57.41
6506;BME280;3286;49.858;8.768;2022-12-07T01:59:22;99260.38;;;6.42;56.00
6506;BME280;3286;49.858;8.768;2022-12-07T02:01:54;99257.91;;;6.73;55.26
6506;BME280;3286;49.858;8.768;2022-12-07T02:04:26;99262.88;;;6.44;55.54
6506;BME280;3286;49.858;8.768;2022-12-07T02:06:55;99266.84;;;6.15;56.26
6506;BME280;3286;49.858;8.768;2022-12-07T02:09:23;99259.81;;;6.16;56.13
6506;BME280;3286;49.858;8.768;2022-12-07T02:11:51;99264.28;;;5.91;57.19
6506;BME280;3286;49.858;8.768;2022-12-07T02:14:19;99258.00;;;6.05;56.92
6506;BME280;3286;49.858;8.768;2022-12-07T02:16:59;99246.81;;;6.14;56.71
6506;BME280;3286;49.858;8.768;2022-12-07T02:23:00;99244.88;;;6.39;55.79
6506;BME280;3286;49.858;8.768;2022-12-07T02:25:41;99232.13;;;5.89;56.92
6506;BME280;3286;49.858;8.768;2022-12-07T02:28:21;99233.19;;;5.98;56.96
6506;BME280;3286;49.858;8.768;2022-12-07T02:31:10;99229.88;;;6.18;56.42
6506;BME280;3286;49.858;8.768;2022-12-07T02:33:42;99235.47;;;5.91;57.27
6506;BME280;3286;49.858;8.768;2022-12-07T02:36:13;99232.38;;;6.20;56.01
6506;BME280;3286;49.858;8.768;2022-12-07T02:38:46;99225.47;;;5.96;56.83
6506;BME280;3286;49.858;8.768;2022-12-07T02:41:21;99223.56;;;6.32;56.06
6506;BME280;3286;49.858;8.768;2022-12-07T02:43:54;99230.44;;;5.88;56.65
6506;BME280;3286;49.858;8.768;2022-12-07T02:46:28;99221.88;;;5.86;56.47
6506;BME280;3286;49.858;8.768;2022-12-07T02:48:59;99232.13;;;5.89;57.22
6506;BME280;3286;49.858;8.768;2022-12-07T02:51:32;99215.00;;;6.07;56.35
6506;BME280;3286;49.858;8.768;2022-12-07T02:54:01;99208.66;;;5.64;57.47
6506;BME280;3286;49.858;8.768;2022-12-07T02:56:37;99216.88;;;5.71;57.58
6506;BME280;3286;49.858;8.768;2022-12-07T02:59:13;99213.16;;;6.31;55.29
6506;BME280;3286;49.858;8.768;2022-12-07T03:01:55;99219.09;;;5.30;57.79
6506;BME280;3286;49.858;8.768;2022-12-07T03:04:36;99218.88;;;5.33;58.17
6506;BME280;3286;49.858;8.768;2022-12-07T03:07:18;99217.22;;;5.55;57.94
6506;BME280;3286;49.858;8.768;2022-12-07T03:09:57;99211.25;;;5.30;58.89
6506;BME280;3286;49.858;8.768;2022-12-07T03:12:31;99207.09;;;6.19;56.16
6506;BME280;3286;49.858;8.768;2022-12-07T03:15:02;99205.22;;;5.05;59.50
6506;BME280;3286;49.858;8.768;2022-12-07T03:17:39;99201.03;;;5.61;58.14
6506;BME280;3286;49.858;8.768;2022-12-07T03:20:09;99204.50;;;5.96;57.06
6506;BME280;3286;49.858;8.768;2022-12-07T03:22:38;99203.16;;;5.45;58.48
6506;BME280;3286;49.858;8.768;2022-12-07T03:25:10;99205.66;;;5.80;57.42
6506;BME280;3286;49.858;8.768;2022-12-07T03:27:48;99212.94;;;5.65;57.85
6506;BME280;3286;49.858;8.768;2022-12-07T03:30:19;99208.03;;;5.27;59.29
6506;BME280;3286;49.858;8.768;2022-12-07T03:32:52;99224.47;;;4.44;61.15
6506;BME280;3286;49.858;8.768;2022-12-07T03:35:23;99216.03;;;5.71;58.76
6506;BME280;3286;49.858;8.768;2022-12-07T03:37:59;99208.47;;;5.20;59.37
6506;BME280;3286;49.858;8.768;2022-12-07T03:40:30;99212.84;;;5.56;58.64
6506;BME280;3286;49.858;8.768;2022-12-07T03:42:59;99212.75;;;5.10;60.73
6506;BME280;3286;49.858;8.768;2022-12-07T03:45:33;99210.00;;;4.76;60.64
6506;BME280;3286;49.858;8.768;2022-12-07T03:48:10;99194.13;;;5.60;58.78
6506;BME280;3286;49.858;8.768;2022-12-07T03:50:48;99203.53;;;5.63;58.57
6506;BME280;3286;49.858;8.768;2022-12-07T03:53:29;99192.91;;;5.30;59.56
6506;BME280;3286;49.858;8.768;2022-12-07T03:56:01;99200.91;;;4.93;61.01
6506;BME280;3286;49.858;8.768;2022-12-07T03:58:29;99202.06;;;5.36;59.96
6506;BME280;3286;49.858;8.768;2022-12-07T04:00:57;99204.75;;;5.00;60.42
6506;BME280;3286;49.858;8.768;2022-12-07T04:03:25;99206.84;;;4.35;61.60
6506;BME280;3286;49.858;8.768;2022-12-07T04:05:53;99213.34;;;4.78;61.34
6506;BME280;3286;49.858;8.768;2022-12-07T04:08:20;99205.31;;;5.04;61.14
6506;BME280;3286;49.858;8.768;2022-12-07T04:10:47;99198.34;;;5.27;60.37
6506;BME280;3286;49.858;8.768;2022-12-07T04:13:18;99207.16;;;5.26;59.88
6506;BME280;3286;49.858;8.768;2022-12-07T04:15:46;99195.13;;;5.12;60.69
6506;BME280;3286;49.858;8.768;2022-12-07T04:18:13;99194.78;;;5.17;60.54
6506;BME280;3286;49.858;8.768;2022-12-07T04:20:46;99198.00;;;5.20;60.33
6506;BME280;3286;49.858;8.768;2022-12-07T04:23:13;99201.72;;;4.58;61.98
6506;BME280;3286;49.858;8.768;2022-12-07T04:25:40;99196.31;;;4.72;61.66
6506;BME280;3286;49.858;8.768;2022-12-07T04:28:07;99195.16;;;4.88;61.33
6506;BME280;3286;49.858;8.768;2022-12-07T04:30:33;99197.47;;;5.04;60.82
6506;BME280;3286;49.858;8.768;2022-12-07T04:33:01;99199.16;;;4.69;62.69
6506;BME280;3286;49.858;8.768;2022-12-07T04:35:28;99195.34;;;5.09;60.74
6506;BME280;3286;49.858;8.768;2022-12-07T04:37:56;99206.47;;;4.88;62.03
6506;BME280;3286;49.858;8.768;2022-12-07T04:40:25;99202.94;;;5.01;61.59
6506;BME280;3286;49.858;8.768;2022-12-07T04:42:52;99196.25;;;5.32;59.81
6506;BME280;3286;49.858;8.768;2022-12-07T04:45:18;99198.19;;;5.76;58.92
6506;BME280;3286;49.858;8.768;2022-12-07T04:47:48;99190.78;;;5.47;59.89
6506;BME280;3286;49.858;8.768;2022-12-07T04:50:14;99193.56;;;5.10;60.96
6506;BME280;3286;49.858;8.768;2022-12-07T04:52:42;99195.34;;;5.09;61.02
6506;BME280;3286;49.858;8.768;2022-12-07T04:55:10;99196.97;;;5.57;59.08
6506;BME280;3286;49.858;8.768;2022-12-07T04:57:37;99192.47;;;4.65;60.60
6506;BME280;3286;49.858;8.768;2022-12-07T05:00:08;99191.56;;;5.13;60.45
6506;BME280;3286;49.858;8.768;2022-12-07T05:02:36;99192.56;;;4.63;61.93
6506;BME280;3286;49.858;8.768;2022-12-07T05:05:03;99186.78;;;4.71;61.38
6506;BME280;3286;49.858;8.768;2022-12-07T05:07:30;99187.13;;;4.67;61.83
6506;BME280;3286;49.858;8.768;2022-12-07T05:09:56;99188.91;;;5.02;60.81
6506;BME280;3286;49.858;8.768;2022-12-07T05:12:24;99186.75;;;4.96;61.42
6506;BME280;3286;49.858;8.768;2022-12-07T05:14:53;99189.94;;;4.88;61.14
6506;BME280;3286;49.858;8.768;2022-12-07T05:17:24;99183.59;;;5.15;60.78
6506;BME280;3286;49.858;8.768;2022-12-07T05:19:51;99186.59;;;5.21;60.08
6506;BME280;3286;49.858;8.768;2022-12-07T05:22:24;99182.44;;;5.42;59.23
6506;BME280;3286;49.858;8.768;2022-12-07T05:24:55;99186.84;;;5.41;59.26
6506;BME280;3286;49.858;8.768;2022-12-07T05:27:23;99185.63;;;5.34;59.16
6506;BME280;3286;49.858;8.768;2022-12-07T05:29:55;99177.09;;;5.66;58.62
6506;BME280;3286;49.858;8.768;2022-12-07T05:32:21;99177.69;;;5.47;59.51
6506;BME280;3286;49.858;8.768;2022-12-07T05:34:49;99182.38;;;5.07;60.59
6506;BME280;3286;49.858;8.768;2022-12-07T05:37:20;99179.94;;;5.40;59.44
6506;BME280;3286;49.858;8.768;2022-12-07T05:39:48;99181.44;;;5.20;59.79
6506;BME280;3286;49.858;8.768;2022-12-07T05:42:15;99178.41;;;5.49;59.34
6506;BME280;3286;49.858;8.768;2022-12-07T05:44:44;99175.66;;;5.73;57.62
6506;BME280;3286;49.858;8.768;2022-12-07T05:47:13;99184.94;;;5.43;59.42
6506;BME280;3286;49.858;8.768;2022-12-07T05:49:40;99178.06;;;5.54;59.43
6506;BME280;3286;49.858;8.768;2022-12-07T05:52:08;99177.78;;;5.34;59.56
6506;BME280;3286;49.858;8.768;2022-12-07T05:54:35;99181.72;;;4.81;60.89
6506;BME280;3286;49.858;8.768;2022-12-07T05:57:02;99181.50;;;5.31;59.60
6506;BME280;3286;49.858;8.768;2022-12-07T05:59:31;99179.59;;;5.33;60.00
6506;BME280;3286;49.858;8.768;2022-12-07T06:02:02;99182.78;;;5.26;60.48
6506;BME280;3286;49.858;8.768;2022-12-07T06:04:32;99188.94;;;5.13;60.48
6506;BME280;3286;49.858;8.768;2022-12-07T06:06:59;99178.03;;;4.84;61.57
6506;BME280;3286;49.858;8.768;2022-12-07T06:09:27;99175.78;;;5.38;59.68
6506;BME280;3286;49.858;8.768;2022-12-07T06:11:54;99174.66;;;6.20;57.57
6506;BME280;3286;49.858;8.768;2022-12-07T06:14:38;99176.00;;;6.03;57.77
6506;BME280;3286;49.858;8.768;2022-12-07T06:17:08;99171.47;;;4.78;61.38
6506;BME280;3286;49.858;8.768;2022-12-07T06:19:39;99167.38;;;4.98;60.48
6506;BME280;3286;49.858;8.768;2022-12-07T06:22:06;99173.50;;;5.33;59.93
6506;BME280;3286;49.858;8.768;2022-12-07T06:24:34;99175.88;;;4.77;61.38
6506;BME280;3286;49.858;8.768;2022-12-07T06:27:01;99177.91;;;5.32;60.27
6506;BME280;3286;49.858;8.768;2022-12-07T06:29:28;99174.91;;;5.26;60.57
6506;BME280;3286;49.858;8.768;2022-12-07T06:31:55;99172.88;;;5.18;60.71
6506;BME280;3286;49.858;8.768;2022-12-07T06:34:22;99186.47;;;4.52;62.01
6506;BME280;3286;49.858;8.768;2022-12-07T06:36:58;99191.75;;;4.63;62.67
6506;BME280;3286;49.858;8.768;2022-12-07T06:39:28;99187.00;;;5.04;62.00
6506;BME280;3286;49.858;8.768;2022-12-07T06:41:55;99185.72;;;5.21;60.66
6506;BME280;3286;49.858;8.768;2022-12-07T06:44:24;99185.78;;;5.32;59.88
6506;BME280;3286;49.858;8.768;2022-12-07T06:46:51;99186.25;;;5.38;60.05
6506;BME280;3286;49.858;8.768;2022-12-07T06:49:20;99190.28;;;5.30;60.13
6506;BME280;3286;49.858;8.768;2022-12-07T06:51:46;99184.44;;;5.38;59.88
6506;BME280;3286;49.858;8.768;2022-12-07T06:54:18;99189.22;;;5.33;59.96
6506;BME280;3286;49.858;8.768;2022-12-07T06:56:47;99187.44;;;5.56;59.57
6506;BME280;3286;49.858;8.768;2022-12-07T06:59:16;99187.16;;;5.14;60.69
6506;BME280;3286;49.858;8.768;2022-12-07T07:01:43;99185.94;;;4.95;60.26
6506;BME280;3286;49.858;8.768;2022-12-07T07:04:14;99189.78;;;5.25;61.42
6506;BME280;3286;49.858;8.768;2022-12-07T07:06:40;99186.03;;;4.93;61.14
6506;BME280;3286;49.858;8.768;2022-12-07T07:09:09;99187.38;;;4.99;61.74
6506;BME280;3286;49.858;8.768;2022-12-07T07:11:40;99194.56;;;4.84;61.00
6506;BME280;3286;49.858;8.768;2022-12-07T07:14:07;99204.34;;;3.96;64.71
6506;BME280;3286;49.858;8.768;2022-12-07T07:16:33;99204.91;;;4.86;62.89
6506;BME280;3286;49.858;8.768;2022-12-07T07:19:00;99203.28;;;5.43;60.07
6506;BME280;3286;49.858;8.768;2022-12-07T07:21:26;99202.63;;;5.05;61.34
6506;BME280;3286;49.858;8.768;2022-12-07T07:23:53;99202.69;;;5.62;59.87
6506;BME280;3286;49.858;8.768;2022-12-07T07:26:24;99193.59;;;5.21;60.68
6506;BME280;3286;49.858;8.768;2022-12-07T07:28:57;99198.25;;;5.29;60.31
6506;BME280;3286;49.858;8.768;2022-12-07T07:31:23;99199.97;;;5.64;60.20
6506;BME280;3286;49.858;8.768;2022-12-07T07:33:52;99202.34;;;4.97;61.55
6506;BME280;3286;49.858;8.768;2022-12-07T07:36:19;99197.19;;;5.31;60.63
6506;BME280;3286;49.858;8.768;2022-12-07T07:38:46;99212.84;;;4.73;61.67
6506;BME280;3286;49.858;8.768;2022-12-07T07:41:14;99212.69;;;5.46;60.14
6506;BME280;3286;49.858;8.768;2022-12-07T07:43:42;99212.75;;;4.50;62.96
6506;BME280;3286;49.858;8.768;2022-12-07T07:46:16;99213.91;;;4.70;62.29
6506;BME280;3286;49.858;8.768;2022-12-07T07:48:45;99219.69;;;5.34;60.45
6506;BME280;3286;49.858;8.768;2022-12-07T07:51:12;99220.81;;;6.11;58.48
6506;BME280;3286;49.858;8.768;2022-12-07T07:53:39;99221.41;;;6.15;58.42
6506;BME280;3286;49.858;8.768;2022-12-07T07:56:06;99222.81;;;5.50;60.14
6506;BME280;3286;49.858;8.768;2022-12-07T07:58:33;99218.06;;;5.67;59.94
6506;BME280;3286;49.858;8.768;2022-12-07T08:01:03;99217.97;;;5.80;59.60
6506;BME280;3286;49.858;8.768;2022-12-07T08:03:34;99222.09;;;6.40;57.88
6506;BME280;3286;49.858;8.768;2022-12-07T08:06:01;99223.38;;;6.57;57.39
6506;BME280;3286;49.858;8.768;2022-12-07T08:08:28;99229.28;;;5.92;58.48
6506;BME280;3286;49.858;8.768;2022-12-07T08:10:57;99228.78;;;5.53;60.44
6506;BME280;3286;49.858;8.768;2022-12-07T08:13:26;99228.66;;;5.07;62.13
6506;BME280;3286;49.858;8.768;2022-12-07T08:15:53;99225.81;;;5.57;60.45
6506;BME280;3286;49.858;8.768;2022-12-07T08:18:20;99230.69;;;5.62;60.33
6506;BME280;3286;49.858;8.768;2022-12-07T08:20:48;99228.28;;;5.47;59.30
6506;BME280;3286;49.858;8.768;2022-12-07T08:23:14;99229.88;;;5.95;59.20
6506;BME280;3286;49.858;8.768;2022-12-07T08:25:42;99237.59;;;6.31;58.14
6506;BME280;3286;49.858;8.768;2022-12-07T08:28:11;99240.44;;;6.51;57.56
6506;BME280;3286;49.858;8.768;2022-12-07T08:30:39;99231.88;;;6.26;58.00
6506;BME280;3286;49.858;8.768;2022-12-07T08:33:09;99231.59;;;6.85;56.89
6506;BME280;3286;49.858;8.768;2022-12-07T08:35:39;99245.47;;;6.43;57.00
6506;BME280;3286;49.858;8.768;2022-12-07T08:38:09;99239.44;;;6.19;57.67
6506;BME280;3286;49.858;8.768;2022-12-07T08:40:36;99239.94;;;6.57;57.28
6506;BME280;3286;49.858;8.768;2022-12-07T08:43:02;99234.75;;;6.23;58.17
6506;BME280;3286;49.858;8.768;2022-12-07T08:45:29;99240.84;;;6.23;58.25
6506;BME280;3286;49.858;8.768;2022-12-07T08:48:03;99238.13;;;6.69;57.16
6506;BME280;3286;49.858;8.768;2022-12-07T08:50:32;99237.81;;;6.51;57.62
6506;BME280;3286;49.858;8.768;2022-12-07T08:53:00;99240.13;;;6.21;58.07
6506;BME280;3286;49.858;8.768;2022-12-07T08:55:30;99247.03;;;6.34;58.04
6506;BME280;3286;49.858;8.768;2022-12-07T08:57:58;99242.84;;;6.43;57.70
6506;BME280;3286;49.858;8.768;2022-12-07T09:00:25;99240.38;;;6.18;58.04
6506;BME280;3286;49.858;8.768;2022-12-07T09:02:53;99240.88;;;6.56;57.26
6506;BME280;3286;49.858;8.768;2022-12-07T09:05:20;99234.72;;;6.46;57.79
6506;BME280;3286;49.858;8.768;2022-12-07T09:07:54;99251.31;;;6.35;58.58
6506;BME280;3286;49.858;8.768;2022-12-07T09:10:25;99248.47;;;6.04;59.39
6506;BME280;3286;49.858;8.768;2022-12-07T09:12:58;99241.66;;;6.35;58.58
6506;BME280;3286;49.858;8.768;2022-12-07T09:15:26;99242.50;;;5.90;59.26
6506;BME280;3286;49.858;8.768;2022-12-07T09:17:52;99244.56;;;6.98;56.17
6506;BME280;3286;49.858;8.768;2022-12-07T09:20:19;99240.63;;;6.15;58.20
6506;BME280;3286;49.858;8.768;2022-12-07T09:22:47;99245.38;;;6.10;58.59
6506;BME280;3286;49.858;8.768;2022-12-07T09:25:14;99245.63;;;6.07;58.24
6506;BME280;3286;49.858;8.768;2022-12-07T09:27:41;99244.28;;;6.24;58.16
6506;BME280;3286;49.858;8.768;2022-12-07T09:30:10;99245.94;;;6.80;57.16
6506;BME280;3286;49.858;8.768;2022-12-07T09:32:39;99240.47;;;6.28;59.08
6506;BME280;3286;49.858;8.768;2022-12-07T09:35:06;99246.03;;;6.90;56.92
6506;BME280;3286;49.858;8.768;2022-12-07T09:37:32;99241.06;;;7.08;55.90
6506;BME280;3286;49.858;8.768;2022-12-07T09:40:02;99238.66;;;7.69;54.78
6506;BME280;3286;49.858;8.768;2022-12-07T09:42:31;99239.47;;;6.85;56.18
6506;BME280;3286;49.858;8.768;2022-12-07T09:45:01;99236.88;;;7.48;55.59
6506;BME280;3286;49.858;8.768;2022-12-07T09:47:32;99229.38;;;7.65;55.82
6506;BME280;3286;49.858;8.768;2022-12-07T09:50:04;99231.16;;;7.64;55.52
6506;BME280;3286;49.858;8.768;2022-12-07T09:52:33;99225.03;;;7.85;54.82
6506;BME280;3286;49.858;8.768;2022-12-07T09:55:00;99235.50;;;8.57;53.36
6506;BME280;3286;49.858;8.768;2022-12-07T09:57:31;99236.66;;;6.21;58.57
6506;BME280;3286;49.858;8.768;2022-12-07T10:00:03;99232.31;;;7.50;56.06
6506;BME280;3286;49.858;8.768;2022-12-07T10:02:36;99233.25;;;7.61;54.91
6506;BME280;3286;49.858;8.768;2022-12-07T10:05:07;99224.19;;;7.85;54.70
6506;BME280;3286;49.858;8.768;2022-12-07T10:07:36;99231.09;;;7.54;55.08
6506;BME280;3286;49.858;8.768;2022-12-07T10:10:04;99226.53;;;7.25;56.51
6506;BME280;3286;49.858;8.768;2022-12-07T10:12:52;99222.97;;;7.58;55.38
6506;BME280;3286;49.858;8.768;2022-12-07T10:15:19;99228.19;;;7.27;56.42
6506;BME280;3286;49.858;8.768;2022-12-07T10:17:51;99220.59;;;7.12;56.22
6506;BME280;3286;49.858;8.768;2022-12-07T10:20:22;99213.13;;;7.29;56.01
6506;BME280;3286;49.858;8.768;2022-12-07T10:22:59;99217.75;;;7.67;55.30
6506;BME280;3286;49.858;8.768;2022-12-07T10:25:29;99209.97;;;7.56;55.08
6506;BME280;3286;49.858;8.768;2022-12-07T10:28:15;99210.34;;;6.88;56.72
6506;BME280;3286;49.858;8.768;2022-12-07T10:30:54;99213.38;;;7.04;56.95
6506;BME280;3286;49.858;8.768;2022-12-07T10:33:30;99210.75;;;6.72;58.00
6506;BME280;3286;49.858;8.768;2022-12-07T10:35:58;99211.66;;;6.05;59.84
6506;BME280;3286;49.858;8.768;2022-12-07T10:38:27;99210.09;;;5.91;60.04
6506;BME280;3286;49.858;8.768;2022-12-07T10:41:03;99204.00;;;5.68;61.06
6506;BME280;3286;49.858;8.768;2022-12-07T10:43:30;99215.25;;;6.60;58.03
6506;BME280;3286;49.858;8.768;2022-12-07T10:49:10;99212.81;;;6.35;58.92
6506;BME280;3286;49.858;8.768;2022-12-07T10:51:47;99199.97;;;7.50;55.94
6506;BME280;3286;49.858;8.768;2022-12-07T10:54:18;99196.84;;;7.35;56.76
6506;BME280;3286;49.858;8.768;2022-12-07T10:56:55;99188.91;;;7.87;55.24
6506;BME280;3286;49.858;8.768;2022-12-07T10:59:34;99194.41;;;7.22;56.70
6506;BME280;3286;49.858;8.768;2022-12-07T11:02:21;99190.25;;;8.22;54.65
6506;BME280;3286;49.858;8.768;2022-12-07T11:05:02;99177.25;;;8.31;54.21
6506;BME280;3286;49.858;8.768;2022-12-07T11:07:38;99171.56;;;8.45;54.67
6506;BME280;3286;49.858;8.768;2022-12-07T11:10:13;99175.09;;;6.69;58.99
6506;BME280;3286;49.858;8.768;2022-12-07T11:12:54;99172.63;;;8.03;56.06
6506;BME280;3286;49.858;8.768;2022-12-07T11:15:28;99163.78;;;8.14;54.42
6506;BME280;3286;49.858;8.768;2022-12-07T11:18:06;99168.31;;;7.61;55.69
6506;BME280;3286;49.858;8.768;2022-12-07T11:20:45;99165.94;;;7.27;55.75
6506;BME280;3286;49.858;8.768;2022-12-07T11:23:21;99164.47;;;6.92;57.43
6506;BME280;3286;49.858;8.768;2022-12-07T11:25:58;99161.44;;;5.99;60.19
6506;BME280;3286;49.858;8.768;2022-12-07T11:28:40;99156.75;;;7.12;57.13
6506;BME280;3286;49.858;8.768;2022-12-07T11:31:16;99141.34;;;8.00;55.06
6506;BME280;3286;49.858;8.768;2022-12-07T11:33:47;99150.25;;;8.29;53.85
6506;BME280;3286;49.858;8.768;2022-12-07T11:36:31;99147.34;;;8.41;53.15
6506;BME280;3286;49.858;8.768;2022-12-07T11:39:02;99140.88;;;7.95;54.27
6506;BME280;3286;49.858;8.768;2022-12-07T11:41:32;99152.44;;;7.32;56.48
6506;BME280;3286;49.858;8.768;2022-12-07T11:44:06;99148.69;;;8.26;54.21
6506;BME280;3286;49.858;8.768;2022-12-07T11:46:44;99143.31;;;8.47;54.04
6506;BME280;3286;49.858;8.768;2022-12-07T11:49:19;99143.28;;;7.05;56.70
6506;BME280;3286;49.858;8.768;2022-12-07T11:51:51;99143.78;;;7.92;55.37
6506;BME280;3286;49.858;8.768;2022-12-07T11:54:22;99141.50;;;8.28;54.00
6506;BME280;3286;49.858;8.768;2022-12-07T11:56:54;99140.28;;;8.72;53.06
6506;BME280;3286;49.858;8.768;2022-12-07T11:59:28;99132.13;;;8.65;53.18
6506;BME280;3286;49.858;8.768;2022-12-07T12:02:07;99127.50;;;9.06;51.84
6506;BME280;3286;49.858;8.768;2022-12-07T12:04:49;99128.28;;;9.17;51.34
6506;BME280;3286;49.858;8.768;2022-12-07T12:07:22;99119.53;;;8.59;52.86
6506;BME280;3286;49.858;8.768;2022-12-07T12:09:55;99125.47;;;8.70;52.17
6506;BME280;3286;49.858;8.768;2022-12-07T12:12:46;99119.34;;;9.37;49.93
6506;BME280;3286;49.858;8.768;2022-12-07T12:15:37;99126.84;;;7.75;54.98
6506;BME280;3286;49.858;8.768;2022-12-07T12:18:29;99116.59;;;7.72;55.04
6506;BME280;3286;49.858;8.768;2022-12-07T12:21:04;99113.63;;;7.14;55.02
6506;BME280;3286;49.858;8.768;2022-12-07T12:23:38;99105.03;;;8.04;53.75
6506;BME280;3286;49.858;8.768;2022-12-07T12:26:08;99104.66;;;8.67;50.97
6506;BME280;3286;49.858;8.768;2022-12-07T12:28:50;99099.19;;;9.18;50.52
6506;BME280;3286;49.858;8.768;2022-12-07T12:31:32;99100.56;;;9.12;50.69
6506;BME280;3286;49.858;8.768;2022-12-07T12:34:29;99103.00;;;8.66;52.49
6506;BME280;3286;49.858;8.768;2022-12-07T12:36:56;99105.81;;;8.65;52.16
6506;BME280;3286;49.858;8.768;2022-12-07T12:39:24;99100.66;;;8.53;51.53
6506;BME280;3286;49.858;8.768;2022-12-07T12:42:02;99099.28;;;8.59;52.20
6506;BME280;3286;49.858;8.768;2022-12-07T12:47:57;99102.28;;;8.25;53.31
6506;BME280;3286;49.858;8.768;2022-12-07T12:50:30;99100.56;;;7.34;55.77
6506;BME280;3286;49.858;8.768;2022-12-07T12:53:12;99099.66;;;7.45;55.84
6506;BME280;3286;49.858;8.768;2022-12-07T12:56:16;99087.44;;;7.85;54.65
6506;BME280;3286;49.858;8.768;2022-12-07T12:58:47;99086.66;;;8.23;53.70
6506;BME280;3286;49.858;8.768;2022-12-07T13:01:44;99078.22;;;8.30;52.94
6506;BME280;3286;49.858;8.768;2022-12-07T13:04:23;99073.63;;;8.32;53.23
6506;BME280;3286;49.858;8.768;2022-12-07T13:06:51;99075.59;;;8.39;53.23
6506;BME280;3286;49.858;8.768;2022-12-07T13:09:21;99084.25;;;7.81;54.32
6506;BME280;3286;49.858;8.768;2022-12-07T13:11:58;99077.03;;;7.73;54.31
6506;BME280;3286;49.858;8.768;2022-12-07T13:14:42;99078.31;;;7.89;53.78
6506;BME280;3286;49.858;8.768;2022-12-07T13:17:10;99072.81;;;8.61;51.81
6506;BME280;3286;49.858;8.768;2022-12-07T13:19:58;99062.78;;;8.84;51.70
6506;BME280;3286;49.858;8.768;2022-12-07T13:22:50;99067.81;;;8.48;51.59
6506;BME280;3286;49.858;8.768;2022-12-07T13:25:34;99068.53;;;7.50;53.48
6506;BME280;3286;49.858;8.768;2022-12-07T13:28:15;99064.91;;;8.02;52.76
6506;BME280;3286;49.858;8.768;2022-12-07T13:30:46;99066.16;;;8.27;52.47
6506;BME280;3286;49.858;8.768;2022-12-07T13:33:21;99076.03;;;7.64;53.36
6506;BME280;3286;49.858;8.768;2022-12-07T13:35:47;99080.25;;;6.84;56.92
6506;BME280;3286;49.858;8.768;2022-12-07T13:38:25;99079.69;;;6.37;59.13
6506;BME280;3286;49.858;8.768;2022-12-07T13:41:12;99087.59;;;5.82;59.47
6506;BME280;3286;49.858;8.768;2022-12-07T13:44:01;99071.63;;;5.85;61.03
6506;BME280;3286;49.858;8.768;2022-12-07T13:46:51;99066.25;;;6.73;57.55
6506;BME280;3286;49.858;8.768;2022-12-07T13:49:21;99067.31;;;6.92;57.76
6506;BME280;3286;49.858;8.768;2022-12-07T13:51:51;99068.56;;;7.19;56.88
6506;BME280;3286;49.858;8.768;2022-12-07T13:54:18;99065.53;;;7.23;56.19
6506;BME280;3286;49.858;8.768;2022-12-07T13:56:48;99069.34;;;7.50;56.80
6506;BME280;3286;49.858;8.768;2022-12-07T13:59:19;99058.22;;;7.88;55.28
6506;BME280;3286;49.858;8.768;2022-12-07T14:01:47;99058.53;;;8.14;54.70
6506;BME280;3286;49.858;8.768;2022-12-07T14:04:19;99061.34;;;7.52;57.07